Time;durP1;ratioP1;P1;durP2;ratioP2;P2;SDS_P1;SDS_P2;PMS_P1;PMS_P2;Temp;Humidity;BMP_temperature;BMP_pressure;BME280_temperature;BME280_humidity;BME280_pressure;Samples;Min_cycle;Max_cycle;Signal;HPM_P1;HPM_P2
2022/11/02 00:01:09;;;;;;;59.70;25.15;;;;;;;14.97;53.36;100233.34;3144871;28;20383;-62
2022/11/02 00:02:41;;;;;;;51.60;22.42;;;;;;;14.95;53.53;100234.38;3134917;28;20118;-63
2022/11/02 00:04:13;;;;;;;54.42;24.20;;;;;;;14.94;53.63;100232.69;3132522;28;20087;-62
2022/11/02 00:05:45;;;;;;;60.15;24.27;;;;;;;14.93;53.59;100234.44;3132370;28;20057;-62
2022/11/02 00:07:16;;;;;;;52.13;21.67;;;;;;;14.93;53.71;100229.19;3132028;28;20052;-62
2022/11/02 00:08:48;;;;;;;53.08;21.23;;;;;;;14.92;53.42;100231.91;3138073;28;20060;-62
2022/11/02 00:10:21;;;;;;;47.83;19.88;;;;;;;14.89;53.93;100219.81;3134122;28;20044;-62
2022/11/02 00:11:53;;;;;;;51.22;20.75;;;;;;;14.89;53.81;100227.69;3132330;28;20418;-62
2022/11/02 00:13:25;;;;;;;45.35;18.95;;;;;;;14.90;53.92;100226.75;3142595;28;20494;-62
2022/11/02 00:14:56;;;;;;;42.28;19.02;;;;;;;14.87;53.66;100220.84;3139691;28;20060;-62
2022/11/02 00:16:31;;;;;;;46.40;18.83;;;;;;;14.89;53.82;100218.97;3137612;28;20048;-63
2022/11/02 00:18:05;;;;;;;44.47;17.73;;;;;;;14.86;53.70;100227.03;3132336;28;20048;-62
2022/11/02 00:19:37;;;;;;;39.45;16.52;;;;;;;14.84;53.88;100223.63;3132256;28;20061;-63
2022/11/02 00:21:10;;;;;;;47.15;19.08;;;;;;;14.82;53.85;100226.34;3132410;28;20582;-62
2022/11/02 00:22:43;;;;;;;41.97;18.50;;;;;;;14.79;53.61;100230.00;3132340;28;20073;-62
2022/11/02 00:24:15;;;;;;;47.95;18.48;;;;;;;14.78;53.92;100235.31;3132268;28;20056;-62
2022/11/02 00:25:48;;;;;;;41.42;17.60;;;;;;;14.77;53.97;100225.75;3136554;28;20114;-62
2022/11/02 00:27:21;;;;;;;48.50;18.65;;;;;;;14.75;53.84;100220.59;3144843;28;20067;-61
2022/11/02 00:28:53;;;;;;;42.80;17.95;;;;;;;14.63;54.18;100202.91;3133091;28;20459;-62
2022/11/02 00:30:25;;;;;;;39.85;17.48;;;;;;;14.72;54.31;100219.91;3131644;28;20041;-62
2022/11/02 00:31:58;;;;;;;37.75;16.58;;;;;;;14.72;54.30;100217.28;3132397;28;20060;-62
2022/11/02 00:33:31;;;;;;;42.42;16.90;;;;;;;14.69;54.23;100212.22;3132180;28;20045;-63
2022/11/02 00:35:01;;;;;;;41.22;16.13;;;;;;;14.69;53.98;100213.06;3133878;28;20106;-62
2022/11/02 00:36:34;;;;;;;41.80;15.05;;;;;;;14.64;54.19;100219.47;3139872;28;20241;-62
2022/11/02 00:38:06;;;;;;;47.65;16.58;;;;;;;14.62;54.32;100216.97;3132020;28;20048;-62
2022/11/02 00:39:37;;;;;;;44.40;16.58;;;;;;;14.64;54.22;100215.13;3132118;28;20053;-63
2022/11/02 00:41:11;;;;;;;45.88;17.50;;;;;;;14.62;54.21;100216.13;3132257;28;20048;-63
2022/11/02 00:42:43;;;;;;;36.20;15.85;;;;;;;14.60;54.62;100213.56;3141672;28;20166;-63
2022/11/02 00:44:14;;;;;;;37.78;16.88;;;;;;;14.47;54.47;100196.81;3140652;28;20528;-63
2022/11/02 00:45:46;;;;;;;38.20;17.48;;;;;;;14.57;54.25;100213.75;3134160;28;20053;-63
2022/11/02 00:47:19;;;;;;;36.85;16.00;;;;;;;14.55;54.21;100207.72;3131957;28;20055;-63
2022/11/02 00:48:51;;;;;;;39.15;16.20;;;;;;;14.48;54.38;100209.81;3132052;28;20053;-63
2022/11/02 00:50:22;;;;;;;43.08;17.00;;;;;;;14.51;54.38;100214.06;3132084;28;20053;-61
2022/11/02 00:51:53;;;;;;;47.15;16.95;;;;;;;14.49;54.68;100211.53;3131987;28;20056;-62
2022/11/02 00:53:25;;;;;;;40.80;15.68;;;;;;;14.47;54.78;100212.53;3131868;28;20049;-62
2022/11/02 00:54:57;;;;;;;38.50;16.83;;;;;;;14.46;54.75;100209.03;3131818;28;20587;-63
2022/11/02 00:56:29;;;;;;;41.05;16.40;;;;;;;14.44;55.06;100212.72;3151087;28;20055;-62
2022/11/02 00:58:00;;;;;;;42.45;15.65;;;;;;;14.44;54.94;100210.94;3141499;28;20044;-62
2022/11/02 00:59:31;;;;;;;41.28;15.68;;;;;;;14.44;54.92;100215.31;3132494;28;20056;-64
2022/11/02 01:01:05;;;;;;;41.30;16.40;;;;;;;14.37;54.92;100196.44;3133102;28;20122;-62
2022/11/02 01:02:39;;;;;;;35.42;17.17;;;;;;;14.40;54.70;100205.94;3132232;28;20148;-63
2022/11/02 01:04:11;;;;;;;36.95;16.88;;;;;;;14.33;54.83;100201.03;3131856;28;20045;-63
2022/11/02 01:05:43;;;;;;;40.58;17.13;;;;;;;14.37;54.77;100204.31;3132020;28;20076;-62
2022/11/02 01:07:15;;;;;;;44.10;16.40;;;;;;;14.37;55.12;100206.94;3131903;28;20053;-63
2022/11/02 01:08:46;;;;;;;44.05;15.70;;;;;;;14.36;54.96;100200.00;3144160;28;20436;-62
2022/11/02 01:10:19;;;;;;;40.22;16.52;;;;;;;14.36;55.36;100196.56;3138973;28;20575;-62
2022/11/02 01:11:51;;;;;;;34.03;16.42;;;;;;;14.34;55.15;100202.72;3136354;28;20106;-63
2022/11/02 01:13:23;;;;;;;39.17;17.38;;;;;;;14.30;55.04;100193.31;3135388;28;20052;-63
2022/11/02 01:14:55;;;;;;;35.92;16.08;;;;;;;14.31;55.13;100189.78;3142683;28;20079;-63
2022/11/02 01:16:27;;;;;;;32.92;16.13;;;;;;;14.30;55.08;100193.31;3139189;28;20486;-63
2022/11/02 01:18:00;;;;;;;37.45;16.38;;;;;;;14.29;55.65;100194.28;3134057;28;20049;-63
2022/11/02 01:19:32;;;;;;;40.03;16.67;;;;;;;14.26;55.70;100189.19;3133921;28;20049;-63
2022/11/02 01:21:05;;;;;;;32.17;14.63;;;;;;;14.11;55.50;100163.84;3134343;28;20098;-63
2022/11/02 01:22:36;;;;;;;34.13;13.77;;;;;;;14.23;55.67;100186.75;3141181;28;20125;-64
2022/11/02 01:24:09;;;;;;;28.33;13.82;;;;;;;14.20;55.67;100183.44;3133785;28;20077;-62
2022/11/02 01:25:45;;;;;;;29.42;14.45;;;;;;;14.17;55.94;100189.69;3134271;28;20048;-63
2022/11/02 01:27:17;;;;;;;31.73;13.43;;;;;;;14.10;55.67;100183.91;3141460;28;20083;-63
2022/11/02 01:28:49;;;;;;;27.70;11.75;;;;;;;14.07;55.81;100183.25;3137866;28;20829;-64
2022/11/02 01:30:21;;;;;;;30.90;12.32;;;;;;;14.06;56.22;100186.81;3136778;28;20434;-64
2022/11/02 01:31:53;;;;;;;30.88;14.07;;;;;;;14.03;55.74;100186.97;3134065;28;20052;-63
2022/11/02 01:33:27;;;;;;;27.90;13.80;;;;;;;13.98;56.18;100181.13;3133960;28;20084;-63
2022/11/02 01:34:59;;;;;;;32.58;14.73;;;;;;;14.05;56.19;100195.56;3133700;28;20079;-62
2022/11/02 01:36:31;;;;;;;27.00;13.45;;;;;;;14.02;55.84;100187.88;3133750;28;20068;-62
2022/11/02 01:38:03;;;;;;;39.00;14.40;;;;;;;14.05;56.18;100190.31;3133924;28;20061;-62
2022/11/02 01:39:34;;;;;;;31.88;14.05;;;;;;;14.04;56.20;100188.66;3133604;28;20051;-62
2022/11/02 01:41:06;;;;;;;28.65;14.48;;;;;;;14.04;56.31;100188.66;3134126;28;20053;-62
2022/11/02 01:42:37;;;;;;;30.17;14.07;;;;;;;14.02;56.25;100180.00;3142707;28;20048;-62
2022/11/02 01:44:27;;;;;;;32.80;13.73;;;;;;;14.03;56.04;100189.59;3142382;28;20052;-62
2022/11/02 01:46:01;;;;;;;35.22;16.40;;;;;;;14.01;56.43;100186.19;3134178;28;20079;-62
2022/11/02 01:47:38;;;;;;;34.58;14.60;;;;;;;13.99;56.46;100182.78;3133599;28;20064;-62
2022/11/02 01:49:14;;;;;;;33.05;14.10;;;;;;;13.98;56.44;100174.09;3133831;28;20059;-62
2022/11/02 01:50:45;;;;;;;33.35;16.58;;;;;;;13.96;56.21;100181.22;3133451;28;20048;-62
2022/11/02 01:52:21;;;;;;;36.45;15.38;;;;;;;13.95;56.53;100179.50;3146532;28;20068;-63
2022/11/02 01:53:57;;;;;;;33.08;14.30;;;;;;;13.93;56.44;100181.38;3147534;28;20442;-62
2022/11/02 01:55:32;;;;;;;33.90;15.13;;;;;;;13.92;56.34;100178.81;3139621;28;20056;-62
2022/11/02 01:57:06;;;;;;;31.92;14.80;;;;;;;13.89;56.80;100178.06;3135204;28;20045;-62
2022/11/02 01:58:38;;;;;;;34.00;16.83;;;;;;;13.88;56.82;100184.22;3141687;28;20510;-63
2022/11/02 02:00:13;;;;;;;33.80;14.50;;;;;;;13.86;56.71;100185.22;3133556;28;20067;-63
2022/11/02 02:01:46;;;;;;;28.60;15.23;;;;;;;13.83;56.45;100183.63;3133662;28;20052;-63
2022/11/02 02:03:20;;;;;;;31.60;15.15;;;;;;;13.82;56.62;100183.72;3133731;28;20049;-62
2022/11/02 02:04:57;;;;;;;39.78;16.23;;;;;;;13.80;56.73;100185.56;3133860;28;20933;-63
2022/11/02 02:06:29;;;;;;;34.25;15.07;;;;;;;13.80;57.02;100180.31;3138099;28;20040;-63
2022/11/02 02:08:02;;;;;;;32.53;15.57;;;;;;;13.77;57.05;100178.69;3137857;28;20044;-63
2022/11/02 02:09:33;;;;;;;32.35;15.27;;;;;;;13.75;56.74;100177.94;3135278;28;20449;-63
2022/11/02 02:11:30;;;;;;;36.03;15.57;;;;;;;13.73;57.06;100174.56;3135371;28;20053;-63
2022/11/02 02:13:04;;;;;;;37.08;15.38;;;;;;;13.71;56.90;100175.56;3137134;28;20044;-63
2022/11/02 02:14:36;;;;;;;39.10;14.65;;;;;;;13.68;57.02;100167.88;3141814;28;20055;-63
2022/11/02 02:16:15;;;;;;;30.40;14.73;;;;;;;13.68;56.80;100175.72;3141285;28;20438;-63
2022/11/02 02:17:53;;;;;;;31.85;15.30;;;;;;;13.66;57.02;100175.78;3133557;28;20048;-64
2022/11/02 02:19:36;;;;;;;37.45;14.80;;;;;;;13.62;57.01;100171.66;3133455;28;20135;-63
2022/11/02 02:21:29;;;;;;;30.67;15.27;;;;;;;13.62;56.89;100177.72;3133414;28;20537;-64
2022/11/02 02:23:45;;;;;;;37.88;15.15;;;;;;;13.54;56.96;100173.81;3135868;28;20052;-64
2022/11/02 02:25:33;;;;;;;34.05;16.08;;;;;;;13.48;57.35;100166.28;3117394;28;20075;-64
2022/11/02 02:27:12;;;;;;;31.35;15.13;;;;;;;13.46;57.51;100168.13;3135093;28;20052;-63
2022/11/02 02:28:49;;;;;;;31.30;16.98;;;;;;;13.47;57.45;100164.59;3133343;28;20060;-63
2022/11/02 02:30:21;;;;;;;38.42;16.70;;;;;;;13.45;57.31;100169.91;3133080;28;20475;-63
2022/11/02 02:31:59;;;;;;;38.53;15.90;;;;;;;13.39;57.27;100163.19;3133266;28;20080;-63
2022/11/02 02:33:34;;;;;;;30.95;15.73;;;;;;;13.42;57.37;100170.91;3133235;28;20099;-63
2022/11/02 02:35:15;;;;;;;39.35;15.90;;;;;;;13.25;57.33;100147.41;3133094;28;20163;-63
2022/11/02 02:36:51;;;;;;;35.33;15.02;;;;;;;13.42;57.23;100177.91;3132661;28;20048;-63
2022/11/02 02:38:31;;;;;;;34.55;15.45;;;;;;;13.42;57.30;100177.91;3133235;28;20421;-63
2022/11/02 02:40:07;;;;;;;34.03;15.77;;;;;;;13.42;57.66;100177.91;3133276;28;20041;-63
2022/11/02 02:41:42;;;;;;;36.45;15.77;;;;;;;13.41;57.67;100174.44;3133782;28;20140;-63
2022/11/02 02:43:22;;;;;;;37.97;15.68;;;;;;;13.44;57.41;100183.91;3142006;28;20426;-63
2022/11/02 02:45:06;;;;;;;38.33;16.08;;;;;;;13.41;57.50;100179.69;3133142;28;20049;-63
2022/11/02 02:46:45;;;;;;;37.95;15.98;;;;;;;13.40;57.26;100183.22;3133065;28;20421;-64
2022/11/02 02:48:20;;;;;;;42.83;16.42;;;;;;;13.24;57.30;100157.88;3135259;28;20044;-63
2022/11/02 02:49:58;;;;;;;37.92;16.75;;;;;;;13.39;57.21;100186.75;3133872;28;20518;-63
2022/11/02 02:51:33;;;;;;;35.75;16.35;;;;;;;13.28;57.46;100173.38;3143920;28;20073;-63
2022/11/02 02:53:07;;;;;;;41.88;15.70;;;;;;;13.28;57.64;100173.38;3133042;28;20477;-63
2022/11/02 02:54:41;;;;;;;36.92;15.95;;;;;;;13.39;57.52;100180.69;3133226;28;20052;-63
2022/11/02 02:56:16;;;;;;;35.33;14.55;;;;;;;13.39;57.61;100184.13;3132831;28;20091;-63
2022/11/02 02:57:48;;;;;;;33.30;14.85;;;;;;;13.38;57.42;100184.22;3140511;28;20468;-63
2022/11/02 02:59:23;;;;;;;43.22;15.43;;;;;;;13.37;57.27;100180.78;3135352;28;20048;-63
2022/11/02 03:00:57;;;;;;;41.42;14.48;;;;;;;13.35;57.25;100176.53;3138592;28;20040;-63
2022/11/02 03:02:30;;;;;;;;;;;;;;;13.27;57.24;100183.91;3137611;28;20506;-61
2022/11/02 03:04:01;;;;;;;32.63;14.27;;;;;;;13.18;57.73;100169.50;3132808;28;20045;-64
2022/11/02 03:05:35;;;;;;;30.95;13.55;;;;;;;13.16;57.52;100164.34;3132748;28;20060;-63
2022/11/02 03:07:12;;;;;;;28.48;12.77;;;;;;;13.21;57.67;100171.97;3132682;28;20550;-63
2022/11/02 03:08:52;;;;;;;26.58;13.13;;;;;;;13.21;57.88;100171.97;3138385;28;20208;-64
2022/11/02 03:10:30;;;;;;;30.15;14.38;;;;;;;13.13;57.77;100163.63;3134362;28;20072;-63
2022/11/02 03:12:11;;;;;;;28.38;13.70;;;;;;;13.15;57.65;100167.03;3132677;28;20052;-63
2022/11/02 03:14:00;;;;;;;37.33;13.60;;;;;;;13.15;57.58;100170.50;3133028;28;20510;-63
2022/11/02 03:15:37;;;;;;;35.05;13.65;;;;;;;13.09;57.89;100165.56;3145090;28;20052;-64
2022/11/02 03:17:17;;;;;;;33.40;13.45;;;;;;;13.13;57.98;100164.50;3141982;28;20049;-63
2022/11/02 03:18:54;;;;;;;29.75;13.50;;;;;;;13.00;57.81;100147.72;3132727;28;20060;-63
2022/11/02 03:20:33;;;;;;;23.80;12.90;;;;;;;13.13;57.88;100161.91;3132644;28;20163;-63
2022/11/02 03:22:12;;;;;;;24.15;11.77;;;;;;;13.13;57.98;100167.13;3132704;28;20442;-63
2022/11/02 03:23:52;;;;;;;29.05;11.77;;;;;;;13.11;57.69;100160.28;3132576;28;20052;-63
2022/11/02 03:25:30;;;;;;;29.73;10.95;;;;;;;13.07;57.91;100159.56;3132559;28;20049;-63
2022/11/02 03:27:12;;;;;;;25.77;10.68;;;;;;;13.07;57.96;100163.94;3132692;28;20052;-63
2022/11/02 03:28:56;;;;;;;28.20;11.27;;;;;;;13.03;58.31;100159.81;3132892;28;20049;-63
2022/11/02 03:30:33;;;;;;;24.52;10.90;;;;;;;13.02;58.21;100168.59;3132065;28;20044;-63
2022/11/02 03:32:10;;;;;;;24.23;11.57;;;;;;;13.01;58.21;100172.94;3132548;28;20052;-63
2022/11/02 03:33:47;;;;;;;26.70;11.52;;;;;;;13.02;58.10;100165.97;3132597;28;20057;-63
2022/11/02 03:35:25;;;;;;;24.48;11.40;;;;;;;13.03;58.36;100165.88;3132422;28;20049;-63
2022/11/02 03:37:02;;;;;;;24.65;11.68;;;;;;;13.02;58.31;100164.19;3132707;28;20450;-63
2022/11/02 03:38:42;;;;;;;29.83;10.85;;;;;;;13.03;58.02;100165.03;3132807;28;20045;-63
2022/11/02 03:40:18;;;;;;;22.83;10.35;;;;;;;12.98;58.34;100160.88;3132600;28;20120;-63
2022/11/02 03:41:52;;;;;;;28.15;11.60;;;;;;;12.98;58.21;100167.84;3137641;28;20127;-63
2022/11/02 03:43:25;;;;;;;32.08;10.98;;;;;;;13.01;58.40;100166.88;3133124;28;20049;-63
2022/11/02 03:45:00;;;;;;;27.20;12.15;;;;;;;13.02;58.13;100166.81;3140766;28;20059;-63
2022/11/02 03:46:36;;;;;;;26.05;11.50;;;;;;;12.98;58.05;100168.72;3136750;28;20049;-63
2022/11/02 03:48:11;;;;;;;30.92;10.43;;;;;;;12.96;58.17;100164.50;3144678;28;20048;-63
2022/11/02 03:49:48;;;;;;;25.13;10.88;;;;;;;12.93;58.44;100165.50;3144525;28;20072;-63
2022/11/02 03:51:24;;;;;;;21.40;9.02;;;;;;;12.90;58.45;100172.66;3144727;28;20158;-63
2022/11/02 03:53:01;;;;;;;30.92;10.73;;;;;;;12.80;58.45;100153.94;3144626;28;20044;-63
2022/11/02 03:54:41;;;;;;;25.15;10.77;;;;;;;12.86;58.29;100173.69;3144478;28;20099;-63
2022/11/02 03:56:20;;;;;;;22.50;9.70;;;;;;;12.82;58.28;100174.78;3141833;28;20051;-63
2022/11/02 03:57:52;;;;;;;25.50;10.15;;;;;;;12.82;58.26;100172.16;3142610;28;20053;-63
2022/11/02 03:59:23;;;;;;;19.15;9.52;;;;;;;12.80;58.50;100174.84;3132737;28;20052;-63
2022/11/02 04:01:00;;;;;;;24.35;9.77;;;;;;;12.82;58.69;100178.22;3138266;28;20063;-63
2022/11/02 04:02:35;;;;;;;22.55;9.35;;;;;;;12.82;58.57;100174.78;3134430;28;20091;-64
2022/11/02 04:04:06;;;;;;;27.75;10.43;;;;;;;12.80;58.22;100168.75;3132256;28;20052;-64
2022/11/02 04:05:40;;;;;;;26.48;9.88;;;;;;;12.80;58.55;100177.44;3132255;28;20098;-63
2022/11/02 04:07:12;;;;;;;23.55;10.65;;;;;;;12.77;58.57;100171.53;3140515;28;20056;-63
2022/11/02 04:08:45;;;;;;;24.58;10.60;;;;;;;12.74;58.34;100177.75;3144168;28;20064;-63
2022/11/02 04:10:16;;;;;;;24.98;9.57;;;;;;;12.69;58.68;100179.75;3142895;28;20106;-63
2022/11/02 04:15:27;;;;;;;30.83;8.82;;;;;;;12.57;58.90;100173.34;3132557;28;20057;-63
2022/11/02 04:20:34;;;;;;;25.60;9.80;;;;;;;12.52;58.75;100177.94;3132428;28;20049;-63
2022/11/02 04:25:52;;;;;;;24.08;10.63;;;;;;;12.48;59.05;100177.25;3134185;28;20592;-62
2022/11/02 04:27:23;;;;;;;24.63;10.45;;;;;;;12.50;58.95;100177.16;3132254;28;20495;-62
2022/11/02 04:28:55;;;;;;;18.98;9.25;;;;;;;12.49;58.78;100178.06;3132269;28;20049;-63
2022/11/02 04:30:26;;;;;;;27.92;10.13;;;;;;;12.46;58.76;100173.84;3132162;28;20194;-62
2022/11/02 04:31:58;;;;;;;31.15;10.68;;;;;;;12.42;59.05;100174.91;3132251;28;20052;-62
2022/11/02 04:33:32;;;;;;;21.88;9.32;;;;;;;12.35;58.95;100160.44;3132115;28;20064;-62
2022/11/02 04:35:03;;;;;;;16.85;8.88;;;;;;;12.33;59.31;100172.69;3132177;28;20118;-63
2022/11/02 04:36:35;;;;;;;27.55;9.75;;;;;;;12.31;59.15;100168.50;3130950;28;20049;-62
2022/11/02 04:39:56;;;;;;;25.17;9.35;;;;;;;12.24;59.14;100160.06;3124055;28;20479;-63
2022/11/02 04:41:43;;;;;;;21.30;8.50;;;;;;;12.20;59.10;100166.38;3139414;28;20099;-62
2022/11/02 04:43:15;;;;;;;22.13;8.85;;;;;;;12.12;59.43;100158.88;3130203;28;20068;-63
2022/11/02 04:44:47;;;;;;;28.73;9.35;;;;;;;12.13;59.66;100167.59;3124510;28;20056;-62
2022/11/02 04:46:18;;;;;;;25.27;8.88;;;;;;;12.12;59.59;100168.47;3125358;28;20227;-63
2022/11/02 04:47:50;;;;;;;24.40;9.57;;;;;;;12.09;59.60;100163.41;3125002;28;20140;-63
2022/11/02 04:49:22;;;;;;;23.17;8.60;;;;;;;12.06;59.72;100165.22;3125568;28;20552;-63
2022/11/02 04:50:54;;;;;;;22.88;8.90;;;;;;;12.04;59.49;100164.47;3125692;28;20053;-62
2022/11/02 04:52:26;;;;;;;21.45;8.85;;;;;;;11.99;59.62;100158.59;3124686;28;20076;-62
2022/11/02 04:54:00;;;;;;;22.00;8.68;;;;;;;12.02;59.33;100165.44;3124319;28;20424;-63
2022/11/02 04:55:32;;;;;;;17.23;9.00;;;;;;;11.99;59.38;100163.81;3128070;28;20052;-63
2022/11/02 04:57:04;;;;;;;20.95;9.05;;;;;;;11.98;59.34;100167.34;3131261;28;20636;-63
2022/11/02 04:58:35;;;;;;;25.35;9.38;;;;;;;11.98;59.61;100169.97;3125070;28;20048;-63
2022/11/02 05:00:08;;;;;;;18.77;9.60;;;;;;;11.98;59.72;100166.47;3125162;28;20063;-62
2022/11/02 05:01:40;;;;;;;;;;;;;;;11.91;59.51;100175.50;3137592;28;20048;-62
2022/11/02 05:03:11;;;;;;;31.80;10.63;;;;;;;11.89;59.72;100173.00;3125636;28;19974;-63
2022/11/02 05:04:42;;;;;;;23.98;9.68;;;;;;;11.93;59.72;100174.53;3129949;28;20048;-64
2022/11/02 05:06:15;;;;;;;28.73;9.88;;;;;;;11.95;59.48;100174.44;3128491;28;20057;-66
2022/11/02 05:07:47;;;;;;;25.50;9.88;;;;;;;11.92;59.46;100169.38;3129260;28;20063;-66
2022/11/02 05:09:20;;;;;;;26.70;9.52;;;;;;;11.99;59.73;100179.47;3130929;28;20067;-64
2022/11/02 05:10:53;;;;;;;22.73;9.90;;;;;;;11.99;59.57;100182.09;3132072;28;20040;-67
2022/11/02 05:12:25;;;;;;;26.40;9.45;;;;;;;12.00;59.48;100183.78;3133725;28;20505;-68
2022/11/02 05:13:58;;;;;;;26.67;9.90;;;;;;;12.01;59.58;100179.44;3124777;28;20064;-67
2022/11/02 05:15:30;;;;;;;25.55;9.48;;;;;;;12.02;59.63;100181.09;3127386;28;20594;-66
2022/11/02 05:17:00;;;;;;;25.60;9.88;;;;;;;12.02;59.40;100184.56;3124574;28;20262;-66
2022/11/02 05:18:33;;;;;;;26.52;9.27;;;;;;;12.06;59.68;100180.88;3124686;28;20475;-68
2022/11/02 05:20:07;;;;;;;22.38;10.82;;;;;;;12.10;59.62;100180.75;3125164;28;20056;-73
2022/11/02 05:21:39;;;;;;;27.10;12.27;;;;;;;12.15;59.52;100178.78;3124325;28;20631;-69
2022/11/02 05:23:11;;;;;;;33.50;13.13;;;;;;;12.20;59.62;100177.66;3124477;28;20310;-67
2022/11/02 05:24:45;;;;;;;27.48;12.10;;;;;;;12.27;59.38;100188.66;3124762;28;20538;-67
2022/11/02 05:26:16;;;;;;;;;;;;;;;12.24;59.35;100173.13;3125205;28;20103;-65
2022/11/02 05:27:48;;;;;;;23.52;9.25;;;;;;;12.24;59.72;100180.97;3124300;28;19925;-69
2022/11/02 05:29:20;;;;;;;24.67;9.38;;;;;;;12.26;59.33;100179.13;3124590;28;20537;-68
2022/11/02 05:30:53;;;;;;;33.15;9.63;;;;;;;12.29;59.65;100190.28;3123450;28;20075;-69
2022/11/02 05:32:25;;;;;;;22.50;9.32;;;;;;;12.31;59.39;100189.38;3123426;28;20053;-65
2022/11/02 05:33:56;;;;;;;27.80;9.85;;;;;;;12.31;59.55;100190.22;3123641;28;20134;-63
2022/11/02 05:35:28;;;;;;;23.67;9.63;;;;;;;12.28;59.69;100182.53;3125138;28;20514;-66
2022/11/02 05:37:00;;;;;;;20.38;9.35;;;;;;;12.37;59.67;100184.72;3132095;28;20139;-65
2022/11/02 05:38:32;;;;;;;26.10;8.50;;;;;;;12.43;59.55;100180.97;3129481;28;20209;-65
2022/11/02 05:40:07;;;;;;;21.73;8.65;;;;;;;12.55;59.46;100182.16;3128380;28;20106;-68
2022/11/02 05:41:39;;;;;;;21.48;8.27;;;;;;;12.65;59.41;100189.47;3124119;28;20147;-67
2022/11/02 05:43:11;;;;;;;28.02;8.05;;;;;;;12.76;59.53;100183.75;3135669;28;20068;-67
2022/11/02 05:44:42;;;;;;;15.68;7.13;;;;;;;12.95;59.27;100179.34;3129049;28;20092;-65
2022/11/02 05:46:14;;;;;;;24.83;7.53;;;;;;;13.13;58.66;100181.94;3123598;28;20121;-67
2022/11/02 05:47:46;;;;;;;27.33;7.15;;;;;;;13.32;58.41;100185.38;3125183;28;20124;-68
2022/11/02 05:49:17;;;;;;;22.40;7.20;;;;;;;13.51;58.06;100185.28;3124776;28;20130;-68
2022/11/02 05:50:50;;;;;;;21.45;7.07;;;;;;;13.71;57.67;100193.88;3124780;28;20579;-69
2022/11/02 05:52:22;;;;;;;37.70;7.85;;;;;;;13.93;57.09;100197.09;3124998;28;20071;-69
2022/11/02 05:53:54;;;;;;;17.75;7.15;;;;;;;14.13;56.78;100187.31;3123908;28;20370;-65
2022/11/02 05:55:27;;;;;;;26.30;8.07;;;;;;;14.34;56.45;100192.25;3124025;28;20052;-66
2022/11/02 05:56:59;;;;;;;29.83;7.55;;;;;;;14.58;55.93;100183.97;3130543;28;20318;-66
2022/11/02 05:58:32;;;;;;;22.00;7.07;;;;;;;14.83;55.23;100195.72;3129721;28;20189;-66
2022/11/02 06:00:05;;;;;;;25.60;6.70;;;;;;;15.05;55.07;100190.09;3130420;28;20134;-66
2022/11/02 06:01:37;;;;;;;17.58;6.85;;;;;;;15.30;54.46;100186.91;3124587;28;20148;-66
2022/11/02 06:03:09;;;;;;;22.83;7.85;;;;;;;15.53;53.71;100193.41;3132611;28;20071;-66
2022/11/02 06:04:41;;;;;;;18.00;6.97;;;;;;;15.73;53.32;100192.25;3128392;28;20061;-66
2022/11/02 06:06:13;;;;;;;22.83;6.85;;;;;;;15.96;52.63;100191.69;3122178;28;20049;-66
2022/11/02 06:07:44;;;;;;;23.52;7.63;;;;;;;16.15;52.38;100194.06;3123895;28;20795;-66
2022/11/02 06:09:16;;;;;;;24.45;8.18;;;;;;;16.30;51.79;100189.63;3132328;28;20095;-67
2022/11/02 06:10:49;;;;;;;25.92;7.45;;;;;;;16.46;51.62;100194.75;3129249;28;20105;-66
2022/11/02 06:12:20;;;;;;;20.13;7.22;;;;;;;16.69;50.86;100190.66;3132252;28;20110;-67
2022/11/02 06:13:52;;;;;;;20.77;7.57;;;;;;;17.01;50.21;100191.22;3124279;28;20071;-65
2022/11/02 06:15:25;;;;;;;22.23;7.30;;;;;;;17.42;49.63;100187.63;3122994;28;20049;-66
2022/11/02 06:16:57;;;;;;;26.30;7.38;;;;;;;17.97;48.59;100191.78;3122730;28;20447;-68
2022/11/02 06:18:30;;;;;;;26.40;7.97;;;;;;;18.57;47.77;100187.53;3122458;28;20053;-66
2022/11/02 06:20:02;;;;;;;26.98;7.10;;;;;;;19.19;46.33;100184.72;3123046;28;20386;-66
2022/11/02 06:21:34;;;;;;;31.10;7.07;;;;;;;19.78;45.34;100189.91;3122705;28;20145;-65
2022/11/02 06:23:06;;;;;;;24.42;8.32;;;;;;;20.43;44.08;100190.97;3123378;28;20061;-65
2022/11/02 06:24:38;;;;;;;18.08;8.27;;;;;;;21.08;42.64;100191.91;3123445;28;20110;-65
2022/11/02 06:26:11;;;;;;;29.33;9.80;;;;;;;21.68;41.79;100186.91;3122792;28;20045;-65
2022/11/02 06:27:51;;;;;;;29.67;8.15;;;;;;;22.33;40.92;100190.16;3135551;28;20056;-64
2022/11/02 06:29:23;;;;;;;28.27;9.07;;;;;;;22.89;39.72;100184.25;3132905;28;20045;-65
2022/11/02 06:30:55;;;;;;;28.20;8.68;;;;;;;23.40;38.65;100184.94;3132695;28;20064;-67
2022/11/02 06:32:27;;;;;;;29.83;8.50;;;;;;;23.85;38.00;100173.66;3145395;28;20052;-68
2022/11/02 06:33:59;;;;;;;19.10;7.93;;;;;;;24.49;37.09;100186.13;3144100;28;20048;-68
2022/11/02 06:35:31;;;;;;;26.52;7.97;;;;;;;25.03;35.87;100188.78;3141858;28;20068;-67
2022/11/02 06:37:03;;;;;;;23.80;6.57;;;;;;;25.46;35.19;100189.81;3137070;28;20387;-73
2022/11/02 06:38:35;;;;;;;23.15;6.95;;;;;;;25.89;34.12;100190.78;3134475;28;20437;-74
2022/11/02 06:40:07;;;;;;;24.00;7.20;;;;;;;26.26;33.57;100189.63;3133311;28;20048;-77
2022/11/02 06:41:44;;;;;;;142.82;58.03;;;;;;;26.59;33.42;100192.41;3132808;28;20049;-68
2022/11/02 06:43:16;;;;;;;68.97;35.67;;;;;;;26.82;32.67;100196.13;3132916;28;20113;-71
2022/11/02 06:44:47;;;;;;;49.75;19.70;;;;;;;27.04;32.50;100201.84;3133221;28;20577;-69
2022/11/02 06:46:20;;;;;;;27.70;13.23;;;;;;;27.28;32.05;100193.84;3145717;28;20048;-72
2022/11/02 06:47:52;;;;;;;33.65;14.43;;;;;;;27.61;31.46;100180.44;3134143;28;20095;-69
2022/11/02 06:49:23;;;;;;;30.17;8.85;;;;;;;28.06;30.83;100192.38;3133175;28;20049;-67
2022/11/02 06:50:56;;;;;;;26.85;8.82;;;;;;;28.51;29.75;100194.38;3132445;28;20068;-68
2022/11/02 06:52:29;;;;;;;20.45;7.80;;;;;;;28.88;29.51;100184.75;3133069;28;20510;-68
2022/11/02 06:54:01;;;;;;;20.27;8.07;;;;;;;29.27;29.03;100182.97;3132797;28;20405;-69
2022/11/02 06:55:33;;;;;;;18.42;7.50;;;;;;;29.69;28.44;100183.25;3134667;28;20506;-69
2022/11/02 06:57:06;;;;;;;17.13;6.38;;;;;;;30.04;27.76;100185.38;3143003;28;20102;-68
2022/11/02 06:58:38;;;;;;;;;;;;;;;30.44;28.10;100186.75;3133498;28;20439;-68
2022/11/02 07:00:12;;;;;;;12.88;5.43;;;;;;;30.37;27.28;100189.31;3141688;28;19958;-68
2022/11/02 07:01:44;;;;;;;13.38;6.20;;;;;;;30.44;26.98;100185.88;3132791;28;20506;-76
2022/11/02 07:03:16;;;;;;;16.42;5.30;;;;;;;30.39;26.48;100181.09;3133077;28;20471;-70
2022/11/02 07:04:49;;;;;;;17.95;5.50;;;;;;;30.31;26.64;100173.97;3132457;28;20048;-69
2022/11/02 07:06:21;;;;;;;16.30;5.63;;;;;;;30.44;26.46;100175.13;3132415;28;20084;-73
2022/11/02 07:07:53;;;;;;;18.25;5.65;;;;;;;30.68;26.22;100171.28;3135125;28;20055;-72
2022/11/02 07:09:25;;;;;;;17.33;6.18;;;;;;;31.07;25.87;100167.34;3145538;28;20485;-71
2022/11/02 07:10:57;;;;;;;11.38;5.78;;;;;;;31.42;25.10;100177.16;3143465;28;20068;-69
2022/11/02 07:12:32;;;;;;;23.92;6.05;;;;;;;31.68;24.87;100171.13;3135032;28;20199;-69
2022/11/02 07:14:03;;;;;;;19.00;5.93;;;;;;;31.95;24.12;100174.81;3133949;28;20390;-71
2022/11/02 07:15:35;;;;;;;18.83;6.32;;;;;;;32.06;24.11;100173.41;3145581;28;20651;-72
2022/11/02 07:17:07;;;;;;;20.92;5.95;;;;;;;32.26;23.82;100176.19;3133210;28;20156;-70
2022/11/02 07:18:40;;;;;;;15.35;6.30;;;;;;;32.56;23.73;100175.91;3132680;28;20052;-69
2022/11/02 07:20:12;;;;;;;25.13;5.88;;;;;;;32.91;23.25;100173.06;3132711;28;20147;-69
2022/11/02 07:21:44;;;;;;;22.80;7.25;;;;;;;33.26;22.90;100169.16;3134976;28;20066;-68
2022/11/02 07:23:16;;;;;;;13.98;6.07;;;;;;;33.46;22.39;100163.72;3141243;28;20459;-68